createdAt,value
2023-05-01T00:01:53.527Z,4.57
2023-05-01T00:04:22.841Z,4.63
2023-05-01T00:06:50.030Z,4.63
2023-05-01T00:09:17.197Z,4.27
2023-05-01T00:11:44.315Z,4.43
2023-05-01T00:14:11.407Z,4.60
2023-05-01T00:16:38.716Z,4.80
2023-05-01T00:19:05.898Z,4.70
2023-05-01T00:21:33.056Z,4.60
2023-05-01T00:24:00.217Z,4.33
2023-05-01T00:26:30.504Z,4.53
2023-05-01T00:28:58.356Z,4.67
2023-05-01T00:31:26.104Z,4.40
2023-05-01T00:33:53.838Z,4.80
2023-05-01T00:36:21.271Z,4.33
2023-05-01T00:38:48.384Z,4.77
2023-05-01T00:41:15.554Z,4.00
2023-05-01T00:43:42.783Z,4.73
2023-05-01T00:46:10.158Z,3.93
2023-05-01T00:48:37.438Z,4.43
2023-05-01T00:51:06.119Z,4.17
2023-05-01T00:53:34.345Z,4.80
2023-05-01T00:56:01.578Z,4.20
2023-05-01T00:58:31.509Z,4.53
2023-05-01T01:00:58.880Z,4.37
2023-05-01T01:03:26.077Z,4.00
2023-05-01T01:06:09.400Z,4.90
2023-05-01T01:08:55.421Z,4.60
2023-05-01T01:11:38.632Z,4.67
2023-05-01T01:14:11.516Z,4.80
2023-05-01T01:16:41.458Z,4.77
2023-05-01T01:19:18.138Z,4.30
2023-05-01T01:21:47.434Z,4.10
2023-05-01T01:24:39.358Z,4.50
2023-05-01T01:27:25.377Z,4.43
2023-05-01T01:29:52.498Z,4.33
2023-05-01T01:32:19.969Z,4.93
2023-05-01T01:34:52.530Z,4.37
2023-05-01T01:37:22.738Z,4.53
2023-05-01T01:40:01.682Z,4.60
2023-05-01T01:42:35.575Z,4.77
2023-05-01T01:45:07.019Z,4.67
2023-05-01T01:47:34.853Z,4.23
2023-05-01T01:50:04.399Z,4.53
2023-05-01T01:52:32.262Z,3.80
2023-05-01T01:55:01.490Z,4.37
2023-05-01T01:57:29.673Z,4.83
2023-05-01T01:59:56.962Z,4.23
2023-05-01T02:02:25.087Z,3.93
2023-05-01T02:04:52.836Z,4.73
2023-05-01T02:07:20.366Z,4.20
2023-05-01T02:09:47.500Z,3.90
2023-05-01T02:12:15.797Z,4.67
2023-05-01T02:14:43.115Z,4.43
2023-05-01T02:17:10.721Z,4.20
2023-05-01T02:19:40.440Z,4.47
2023-05-01T02:22:07.893Z,4.30
2023-05-01T02:24:36.581Z,4.00
2023-05-01T02:27:16.329Z,3.87
2023-05-01T02:29:44.323Z,4.17
2023-05-01T02:32:12.282Z,5.43
2023-05-01T02:34:39.527Z,4.03
2023-05-01T02:37:07.574Z,4.07
2023-05-01T02:39:35.167Z,4.60
2023-05-01T02:42:06.200Z,4.23
2023-05-01T02:44:37.341Z,4.47
2023-05-01T02:47:05.707Z,4.70
2023-05-01T02:49:33.044Z,4.27
2023-05-01T02:52:01.174Z,4.33
2023-05-01T02:54:29.729Z,3.90
2023-05-01T02:56:59.353Z,4.40
2023-05-01T02:59:26.594Z,4.17
2023-05-01T03:01:53.747Z,3.93
2023-05-01T03:04:21.036Z,4.10
2023-05-01T03:06:48.305Z,4.33
2023-05-01T03:09:15.507Z,4.93
2023-05-01T03:11:42.680Z,4.40
2023-05-01T03:14:11.185Z,4.40
2023-05-01T03:16:38.675Z,3.77
2023-05-01T03:19:06.146Z,4.40
2023-05-01T03:21:33.939Z,4.83
2023-05-01T03:24:01.266Z,4.73
2023-05-01T03:26:28.694Z,4.77
2023-05-01T03:28:55.878Z,4.37
2023-05-01T03:31:23.352Z,4.77
2023-05-01T03:33:50.600Z,4.63
2023-05-01T03:36:17.879Z,4.57
2023-05-01T03:38:45.995Z,5.07
2023-05-01T03:41:13.109Z,4.83
2023-05-01T03:43:40.448Z,4.03
2023-05-01T03:46:07.585Z,4.63
2023-05-01T03:48:34.864Z,4.40
2023-05-01T03:51:02.012Z,4.50
2023-05-01T03:53:29.321Z,4.73
2023-05-01T03:55:57.279Z,4.33
2023-05-01T03:58:24.418Z,4.77
2023-05-01T04:00:51.479Z,5.37
2023-05-01T04:03:18.721Z,4.20
2023-05-01T04:05:46.000Z,5.13
2023-05-01T04:08:13.105Z,4.03
2023-05-01T04:10:40.542Z,4.63
2023-05-01T04:13:07.715Z,4.70
2023-05-01T04:15:35.118Z,4.90
2023-05-01T04:18:02.303Z,3.90
2023-05-01T04:20:29.471Z,4.07
2023-05-01T04:22:56.748Z,4.47
2023-05-01T04:25:23.905Z,4.60
2023-05-01T04:27:51.135Z,4.70
2023-05-01T04:30:18.243Z,4.17
2023-05-01T04:32:45.477Z,4.33
2023-05-01T04:35:12.944Z,4.47
2023-05-01T04:37:40.174Z,4.70
2023-05-01T04:40:09.737Z,4.77
2023-05-01T04:42:42.457Z,4.07
2023-05-01T04:45:09.831Z,4.00
2023-05-01T04:47:37.110Z,3.90
2023-05-01T04:50:04.447Z,5.10
2023-05-01T04:52:31.890Z,4.07
2023-05-01T04:54:59.156Z,4.93
2023-05-01T04:57:26.393Z,3.93
2023-05-01T04:59:53.560Z,4.67
2023-05-01T05:02:20.967Z,4.60
2023-05-01T05:04:48.188Z,4.17
2023-05-01T05:07:15.901Z,4.90
2023-05-01T05:09:43.020Z,4.37
2023-05-01T05:12:10.264Z,4.50
2023-05-01T05:14:37.385Z,4.43
2023-05-01T05:17:09.395Z,4.57
2023-05-01T05:19:36.586Z,4.67
2023-05-01T05:22:04.162Z,4.10
2023-05-01T05:24:31.543Z,4.90
2023-05-01T05:26:58.602Z,5.03
2023-05-01T05:29:25.763Z,4.53
2023-05-01T05:31:52.924Z,4.57
2023-05-01T05:34:23.172Z,4.00
2023-05-01T05:36:50.269Z,4.83
2023-05-01T05:39:17.781Z,4.70
2023-05-01T05:41:44.819Z,4.40
2023-05-01T05:44:11.989Z,4.57
2023-05-01T05:46:39.214Z,4.30
2023-05-01T05:49:06.372Z,4.47
2023-05-01T05:51:33.649Z,4.20
2023-05-01T05:54:00.789Z,3.93
2023-05-01T05:56:27.915Z,4.37
2023-05-01T05:58:55.102Z,4.50
2023-05-01T06:01:22.177Z,4.20
2023-05-01T06:03:49.313Z,4.30
2023-05-01T06:06:17.180Z,4.53
2023-05-01T06:08:46.473Z,4.27
2023-05-01T06:11:13.610Z,4.97
2023-05-01T06:13:40.755Z,4.80
2023-05-01T06:16:08.541Z,4.87
2023-05-01T06:18:35.727Z,4.40
2023-05-01T06:21:02.915Z,4.33
2023-05-01T06:23:30.319Z,4.67
2023-05-01T06:25:57.464Z,4.67
2023-05-01T06:28:24.570Z,4.30
2023-05-01T06:30:51.638Z,4.03
2023-05-01T06:33:18.696Z,4.30
2023-05-01T06:35:45.855Z,4.23
2023-05-01T06:38:12.984Z,4.17
2023-05-01T06:40:41.646Z,4.47
2023-05-01T06:43:08.772Z,3.87
2023-05-01T06:45:37.369Z,3.87
2023-05-01T06:48:04.708Z,3.97
2023-05-01T06:50:32.013Z,4.17
2023-05-01T06:53:00.908Z,4.23
2023-05-01T06:55:31.501Z,4.20
2023-05-01T06:58:02.453Z,3.93
2023-05-01T07:00:30.561Z,4.60
2023-05-01T07:02:57.777Z,4.23
2023-05-01T07:05:25.064Z,4.20
2023-05-01T07:08:00.859Z,3.83
2023-05-01T07:10:30.695Z,3.60
2023-05-01T07:12:57.820Z,4.23
2023-05-01T07:15:25.122Z,4.27
2023-05-01T07:17:52.546Z,4.50
2023-05-01T07:20:19.879Z,4.30
2023-05-01T07:22:47.182Z,4.47
2023-05-01T07:25:14.440Z,3.90
2023-05-01T07:27:41.605Z,3.80
2023-05-01T07:30:09.717Z,4.00
2023-05-01T07:32:37.141Z,4.53
2023-05-01T07:35:04.669Z,4.33
2023-05-01T07:37:31.929Z,4.20
2023-05-01T07:39:59.213Z,4.20
2023-05-01T07:42:29.143Z,4.00
2023-05-01T07:44:56.215Z,4.37
2023-05-01T07:47:24.172Z,4.50
2023-05-01T07:49:51.302Z,3.97
2023-05-01T07:52:18.348Z,3.80
2023-05-01T07:54:49.685Z,4.10
2023-05-01T07:57:16.951Z,4.07
2023-05-01T07:59:47.253Z,3.50
2023-05-01T08:02:14.317Z,3.40
2023-05-01T08:04:41.684Z,3.93
2023-05-01T08:07:09.055Z,3.53
2023-05-01T08:09:36.189Z,3.73
2023-05-01T08:12:04.074Z,3.63
2023-05-01T08:14:31.240Z,3.37
2023-05-01T08:16:58.475Z,3.50
2023-05-01T08:19:25.604Z,3.43
2023-05-01T08:21:53.081Z,3.27
2023-05-01T08:24:20.515Z,3.63
2023-05-01T08:26:48.813Z,3.70
2023-05-01T08:29:15.951Z,4.13
2023-05-01T08:31:43.961Z,3.40
2023-05-01T08:34:11.164Z,3.50
2023-05-01T08:36:38.347Z,3.93
2023-05-01T08:39:05.549Z,3.47
2023-05-01T08:41:33.533Z,3.07
2023-05-01T08:44:04.487Z,3.00
2023-05-01T08:46:39.197Z,3.17
2023-05-01T08:49:07.217Z,3.30
2023-05-01T08:51:35.618Z,3.43
2023-05-01T08:54:03.932Z,3.43
2023-05-01T08:56:31.351Z,3.20
2023-05-01T08:58:59.551Z,3.20
2023-05-01T09:01:28.716Z,3.03
2023-05-01T09:03:56.467Z,3.10
2023-05-01T09:06:23.945Z,3.77
2023-05-01T09:08:51.548Z,3.17
2023-05-01T09:11:20.113Z,3.37
2023-05-01T09:13:47.654Z,3.47
2023-05-01T09:16:14.949Z,3.00
2023-05-01T09:18:42.462Z,2.90
2023-05-01T09:21:10.475Z,3.23
2023-05-01T09:23:37.692Z,3.53
2023-05-01T09:26:08.399Z,2.90
2023-05-01T09:28:42.321Z,3.27
2023-05-01T09:31:22.798Z,4.00
2023-05-01T09:33:54.306Z,3.00
2023-05-01T09:36:21.810Z,2.73
2023-05-01T09:38:48.909Z,4.23
2023-05-01T09:41:16.150Z,3.20
2023-05-01T09:43:49.712Z,3.53
2023-05-01T09:46:16.815Z,2.53
2023-05-01T09:48:54.996Z,3.20
2023-05-01T09:51:23.048Z,3.40
2023-05-01T09:53:50.455Z,3.70
2023-05-01T09:56:19.108Z,2.80
2023-05-01T09:58:47.153Z,2.72
2023-05-01T10:01:15.213Z,3.03
2023-05-01T10:03:44.065Z,3.40
2023-05-01T10:06:11.948Z,2.80
2023-05-01T10:08:51.390Z,3.00
2023-05-01T10:11:18.460Z,3.63
2023-05-01T10:13:45.596Z,3.40
2023-05-01T10:16:31.762Z,3.10
2023-05-01T10:19:01.094Z,2.60
2023-05-01T10:21:29.391Z,2.53
2023-05-01T10:23:57.172Z,2.67
2023-05-01T10:26:25.399Z,2.92
2023-05-01T10:28:52.598Z,2.30
2023-05-01T10:31:19.758Z,2.70
2023-05-01T10:33:48.569Z,2.95
2023-05-01T10:36:22.573Z,2.75
2023-05-01T10:38:49.812Z,2.72
2023-05-01T10:41:17.148Z,2.80
2023-05-01T10:43:44.496Z,2.75
2023-05-01T10:46:19.179Z,2.42
2023-05-01T10:48:46.329Z,2.78
2023-05-01T10:51:14.474Z,2.90
2023-05-01T10:53:42.522Z,2.60
2023-05-01T10:56:24.083Z,2.88
2023-05-01T10:58:54.404Z,2.47
2023-05-01T11:01:28.785Z,2.25
2023-05-01T11:03:58.680Z,2.10
2023-05-01T11:06:26.447Z,2.20
2023-05-01T11:08:53.800Z,2.50
2023-05-01T11:11:23.705Z,2.70
2023-05-01T11:14:11.202Z,2.92
2023-05-01T11:16:42.016Z,2.90
2023-05-01T11:19:12.508Z,2.88
2023-05-01T11:21:41.837Z,2.30
2023-05-01T11:24:16.552Z,2.30
2023-05-01T11:26:44.513Z,2.42
2023-05-01T11:29:12.009Z,3.03
2023-05-01T11:31:40.038Z,2.88
2023-05-01T11:34:07.348Z,2.45
2023-05-01T11:36:50.620Z,2.38
2023-05-01T11:39:18.180Z,2.10
2023-05-01T11:41:45.336Z,2.15
2023-05-01T11:44:13.127Z,2.20
2023-05-01T11:46:40.500Z,2.00
2023-05-01T11:49:08.456Z,1.90
2023-05-01T11:51:35.764Z,2.03
2023-05-01T11:54:05.104Z,1.70
2023-05-01T11:56:32.837Z,2.30
2023-05-01T11:59:09.644Z,2.05
2023-05-01T12:01:37.952Z,2.00
2023-05-01T12:04:05.753Z,1.70
2023-05-01T12:06:51.733Z,1.95
2023-05-01T12:09:26.808Z,1.85
2023-05-01T12:11:55.168Z,2.00
2023-05-01T12:14:24.277Z,1.98
2023-05-01T12:16:51.609Z,1.80
2023-05-01T12:19:19.740Z,1.58
2023-05-01T12:21:48.452Z,1.70
2023-05-01T12:24:20.005Z,1.95
2023-05-01T12:26:47.568Z,1.45
2023-05-01T12:29:14.610Z,1.77
2023-05-01T12:31:48.407Z,1.50
2023-05-01T12:34:15.563Z,2.10
2023-05-01T12:36:42.954Z,1.20
2023-05-01T12:39:11.880Z,1.75
2023-05-01T12:41:40.007Z,1.40
2023-05-01T12:44:23.595Z,1.60
2023-05-01T12:47:01.372Z,1.80
2023-05-01T12:49:29.602Z,1.95
2023-05-01T12:51:57.316Z,2.35
2023-05-01T12:54:34.143Z,1.83
2023-05-01T12:57:11.790Z,1.70
2023-05-01T12:59:40.098Z,2.25
2023-05-01T13:02:08.724Z,1.60
2023-05-01T13:04:35.963Z,2.30
2023-05-01T13:07:03.252Z,1.70
2023-05-01T13:09:31.007Z,1.80
2023-05-01T13:12:10.779Z,1.42
2023-05-01T13:14:41.850Z,1.73
2023-05-01T13:17:09.866Z,1.80
2023-05-01T13:19:37.237Z,1.60
2023-05-01T13:22:04.563Z,1.75
2023-05-01T13:24:37.956Z,1.50
2023-05-01T13:27:05.713Z,1.40
2023-05-01T13:30:41.999Z,1.80
2023-05-01T13:33:11.494Z,1.80
2023-05-01T13:35:40.668Z,1.48
2023-05-01T13:38:10.553Z,1.52
2023-05-01T13:40:37.642Z,1.58
2023-05-01T13:43:05.447Z,1.55
2023-05-01T13:45:32.649Z,1.35
2023-05-01T13:47:59.831Z,1.90
2023-05-01T13:50:27.533Z,2.03
2023-05-01T13:52:54.666Z,2.30
2023-05-01T13:55:24.524Z,2.10
2023-05-01T13:57:51.670Z,1.80
2023-05-01T14:00:18.970Z,1.98
2023-05-01T14:02:48.569Z,1.73
2023-05-01T14:05:16.678Z,1.92
2023-05-01T14:07:51.294Z,1.80
2023-05-01T14:10:18.390Z,1.60
2023-05-01T14:12:45.911Z,2.20
2023-05-01T14:15:13.446Z,2.00
2023-05-01T14:17:40.598Z,2.37
2023-05-01T14:20:08.693Z,1.90
2023-05-01T14:22:56.233Z,2.30
2023-05-01T14:25:28.427Z,2.57
2023-05-01T14:27:55.981Z,1.80
2023-05-01T14:30:39.534Z,1.60
2023-05-01T14:33:07.928Z,2.10
2023-05-01T14:35:36.431Z,2.23
2023-05-01T14:38:08.867Z,2.30
2023-05-01T14:40:35.997Z,2.70
2023-05-01T14:43:03.465Z,1.92
2023-05-01T14:45:31.725Z,1.90
2023-05-01T14:47:58.959Z,1.97
2023-05-01T14:50:26.115Z,1.97
2023-05-01T14:52:54.349Z,1.70
2023-05-01T14:55:26.660Z,1.73
2023-05-01T14:57:53.998Z,2.00
2023-05-01T15:00:21.210Z,2.20
2023-05-01T15:02:48.989Z,2.40
2023-05-01T15:05:16.461Z,2.20
2023-05-01T15:07:43.702Z,1.97
2023-05-01T15:10:11.166Z,1.88
2023-05-01T15:12:38.260Z,2.40
2023-05-01T15:15:06.305Z,2.30
2023-05-01T15:17:33.454Z,2.30
2023-05-01T15:20:00.699Z,2.70
2023-05-01T15:22:27.897Z,2.90
2023-05-01T15:24:56.167Z,2.63
2023-05-01T15:27:23.472Z,2.80
2023-05-01T15:29:51.027Z,2.83
2023-05-01T15:32:18.707Z,2.87
2023-05-01T15:34:45.823Z,2.97
2023-05-01T15:37:13.067Z,2.70
2023-05-01T15:39:44.982Z,7.10
2023-05-01T15:42:12.104Z,2.40
2023-05-01T15:44:39.642Z,2.20
2023-05-01T15:47:06.832Z,2.10
2023-05-01T15:49:33.990Z,2.10
2023-05-01T15:52:01.138Z,2.50
2023-05-01T15:54:28.490Z,2.10
2023-05-01T15:56:55.658Z,1.90
2023-05-01T15:59:23.055Z,1.80
2023-05-01T16:01:50.361Z,1.90
2023-05-01T16:04:17.508Z,1.70
2023-05-01T16:06:44.613Z,2.17
2023-05-01T16:09:16.629Z,1.80
2023-05-01T16:11:44.058Z,2.33
2023-05-01T16:14:12.616Z,2.40
2023-05-01T16:16:42.547Z,3.00
2023-05-01T16:19:11.378Z,2.10
2023-05-01T16:21:38.896Z,2.40
2023-05-01T16:24:07.034Z,2.83
2023-05-01T16:26:35.102Z,3.30
2023-05-01T16:29:06.284Z,3.63
2023-05-01T16:31:49.913Z,6.13
2023-05-01T16:34:20.988Z,8.47
2023-05-01T16:36:48.102Z,8.93
2023-05-01T16:39:18.732Z,3.00
2023-05-01T16:41:47.283Z,2.90
2023-05-01T16:44:16.385Z,3.30
2023-05-01T16:46:52.254Z,3.23
2023-05-01T16:49:19.505Z,3.93
2023-05-01T16:51:47.053Z,3.43
2023-05-01T16:54:14.959Z,3.47
2023-05-01T16:56:42.252Z,3.13
2023-05-01T16:59:09.989Z,3.37
2023-05-01T17:01:37.131Z,2.50
2023-05-01T17:04:06.227Z,2.90
2023-05-01T17:06:33.524Z,3.13
2023-05-01T17:09:00.727Z,3.83
2023-05-01T17:11:32.058Z,3.63
2023-05-01T17:13:59.789Z,3.03
2023-05-01T17:16:28.263Z,3.37
2023-05-01T17:18:55.463Z,3.00
2023-05-01T17:21:24.593Z,3.27
2023-05-01T17:23:52.113Z,3.30
2023-05-01T17:26:19.216Z,3.10
2023-05-01T17:28:46.350Z,3.47
2023-05-01T17:31:15.387Z,2.90
2023-05-01T17:33:43.879Z,2.90
2023-05-01T17:36:11.135Z,2.73
2023-05-01T17:38:38.554Z,3.10
2023-05-01T17:41:05.659Z,3.70
2023-05-01T17:43:33.182Z,3.17
2023-05-01T17:46:00.390Z,3.33
2023-05-01T17:48:27.574Z,3.70
2023-05-01T17:50:55.720Z,3.60
2023-05-01T17:53:23.323Z,4.13
2023-05-01T17:55:50.544Z,4.10
2023-05-01T17:58:17.848Z,3.87
2023-05-01T18:00:44.960Z,3.70
2023-05-01T18:03:12.340Z,4.30
2023-05-01T18:05:39.683Z,3.90
2023-05-01T18:08:07.549Z,4.40
2023-05-01T18:10:34.642Z,4.43
2023-05-01T18:13:01.963Z,4.23
2023-05-01T18:15:29.350Z,4.03
2023-05-01T18:17:56.956Z,4.10
2023-05-01T18:20:24.428Z,4.00
2023-05-01T18:22:54.262Z,3.80
2023-05-01T18:25:21.424Z,3.90
2023-05-01T18:27:49.111Z,4.03
2023-05-01T18:30:16.823Z,4.20
2023-05-01T18:32:47.746Z,4.17
2023-05-01T18:35:16.727Z,4.03
2023-05-01T18:37:44.208Z,4.27
2023-05-01T18:40:11.731Z,4.70
2023-05-01T18:42:42.946Z,4.23
2023-05-01T18:45:10.386Z,4.53
2023-05-01T18:47:40.747Z,4.60
2023-05-01T18:50:19.049Z,4.83
2023-05-01T18:52:48.253Z,4.50
2023-05-01T18:55:20.145Z,4.93
2023-05-01T18:57:50.037Z,4.80
2023-05-01T19:00:20.508Z,5.03
2023-05-01T19:03:00.175Z,5.30
2023-05-01T19:05:27.839Z,4.80
2023-05-01T19:07:58.931Z,5.57
2023-05-01T19:10:26.045Z,6.00
2023-05-01T19:12:54.666Z,5.40
2023-05-01T19:15:21.775Z,5.90
2023-05-01T19:17:49.015Z,5.83
2023-05-01T19:20:16.260Z,6.70
2023-05-01T19:22:43.365Z,6.63
2023-05-01T19:25:10.483Z,6.60
2023-05-01T19:27:37.699Z,6.20
2023-05-01T19:30:05.224Z,6.40
2023-05-01T19:32:32.364Z,6.13
2023-05-01T19:34:59.521Z,6.70
2023-05-01T19:37:27.943Z,6.60
2023-05-01T19:39:55.118Z,6.97
2023-05-01T19:42:22.224Z,7.20
2023-05-01T19:44:49.374Z,6.93
2023-05-01T19:47:16.588Z,7.30
2023-05-01T19:49:45.005Z,7.27
2023-05-01T19:52:12.080Z,8.37
2023-05-01T19:54:39.160Z,8.27
2023-05-01T19:57:06.423Z,10.77
2023-05-01T19:59:36.142Z,8.20
2023-05-01T20:02:04.236Z,7.50
2023-05-01T20:04:31.818Z,8.23
2023-05-01T20:06:59.249Z,8.57
2023-05-01T20:12:08.677Z,7.93
2023-05-01T20:14:35.819Z,8.23
2023-05-01T20:17:03.100Z,7.67
2023-05-01T20:19:31.542Z,8.90
2023-05-01T20:21:58.828Z,8.30
2023-05-01T20:24:26.051Z,9.23
2023-05-01T20:26:56.285Z,8.57
2023-05-01T20:29:23.460Z,8.43
2023-05-01T20:31:51.538Z,9.23
2023-05-01T20:34:19.293Z,8.63
2023-05-01T20:36:46.415Z,9.13
2023-05-01T20:39:13.731Z,9.20
2023-05-01T20:41:41.021Z,8.77
2023-05-01T20:44:08.967Z,9.43
2023-05-01T20:46:36.214Z,8.77
2023-05-01T20:49:05.404Z,9.57
2023-05-01T20:51:32.674Z,10.33
2023-05-01T20:53:59.878Z,8.87
2023-05-01T20:56:26.987Z,9.53
2023-05-01T20:58:54.503Z,9.47
2023-05-01T21:01:21.769Z,9.20
2023-05-01T21:03:49.171Z,10.37
2023-05-01T21:06:16.769Z,9.97
2023-05-01T21:08:44.848Z,10.53
2023-05-01T21:11:11.980Z,10.23
2023-05-01T21:13:39.198Z,10.20
2023-05-01T21:16:09.351Z,10.60
2023-05-01T21:18:36.693Z,12.00
2023-05-01T21:21:03.972Z,12.33
2023-05-01T21:23:31.217Z,10.30
2023-05-01T21:25:58.362Z,12.33
2023-05-01T21:28:25.776Z,12.53
2023-05-01T21:30:53.858Z,12.30
2023-05-01T21:33:21.270Z,13.73
2023-05-01T21:35:49.279Z,14.57
2023-05-01T21:38:17.025Z,14.30
2023-05-01T21:40:46.082Z,15.73
2023-05-01T21:43:13.417Z,16.33
2023-05-01T21:45:43.627Z,17.00
2023-05-01T21:48:14.664Z,16.07
2023-05-01T21:50:41.749Z,17.17
2023-05-01T21:53:12.258Z,16.73
2023-05-01T21:55:39.514Z,18.37
2023-05-01T21:58:06.685Z,17.10
2023-05-01T22:00:34.226Z,17.17
2023-05-01T22:03:02.505Z,16.87
2023-05-01T22:05:31.176Z,17.37
2023-05-01T22:07:58.433Z,18.60
2023-05-01T22:10:57.687Z,17.15
2023-05-01T22:13:24.952Z,18.37
2023-05-01T22:15:52.084Z,18.90
2023-05-01T22:18:20.835Z,19.00
2023-05-01T22:20:48.016Z,19.60
2023-05-01T22:23:15.307Z,19.33
2023-05-01T22:25:42.557Z,19.30
2023-05-01T22:28:09.948Z,19.30
2023-05-01T22:30:38.840Z,18.70
2023-05-01T22:33:06.724Z,18.70
2023-05-01T22:35:33.972Z,18.90
2023-05-01T22:38:01.276Z,18.60
2023-05-01T22:40:29.131Z,18.63
2023-05-01T22:42:56.730Z,18.87
2023-05-01T22:45:24.012Z,18.50
2023-05-01T22:47:53.642Z,18.90
2023-05-01T22:50:21.050Z,17.57
2023-05-01T22:52:48.356Z,18.93
2023-05-01T22:55:15.980Z,20.73
2023-05-01T22:57:43.318Z,20.07
2023-05-01T23:00:13.011Z,20.93
2023-05-01T23:02:40.781Z,20.63
2023-05-01T23:05:09.132Z,21.27
2023-05-01T23:07:36.635Z,21.23
2023-05-01T23:10:07.275Z,23.03
2023-05-01T23:12:38.562Z,22.70
2023-05-01T23:15:10.305Z,23.10
2023-05-01T23:17:37.710Z,22.83
2023-05-01T23:20:16.287Z,24.37
2023-05-01T23:22:44.123Z,23.13
2023-05-01T23:25:14.001Z,24.33
2023-05-01T23:27:43.176Z,23.33
2023-05-01T23:30:10.704Z,23.00
2023-05-01T23:32:38.487Z,24.33
2023-05-01T23:35:15.669Z,27.07
2023-05-01T23:37:43.737Z,25.37
2023-05-01T23:40:10.970Z,27.23
2023-05-01T23:42:38.787Z,27.50
2023-05-01T23:45:06.616Z,29.33
2023-05-01T23:47:34.236Z,30.37
2023-05-01T23:50:01.935Z,27.80
2023-05-01T23:52:29.326Z,29.47
2023-05-01T23:54:56.524Z,29.63
2023-05-01T23:57:23.872Z,30.97
2023-05-01T23:59:51.262Z,29.83
